createdAt,value
2019-05-14T00:00:27.187Z,17.71
2019-05-14T00:03:17.226Z,17.68
2019-05-14T00:06:07.550Z,17.74
2019-05-14T00:08:57.898Z,17.73
2019-05-14T00:11:48.331Z,17.63
2019-05-14T00:14:40.153Z,17.62
2019-05-14T00:17:32.122Z,17.61
2019-05-14T00:20:22.705Z,17.59
2019-05-14T00:23:13.186Z,17.55
2019-05-14T00:26:03.380Z,17.51
2019-05-14T00:28:53.337Z,17.49
2019-05-14T00:31:43.442Z,17.55
2019-05-14T00:34:33.823Z,17.52
2019-05-14T00:37:23.883Z,17.49
2019-05-14T00:40:14.100Z,17.53
2019-05-14T00:43:04.220Z,17.47
2019-05-14T00:45:54.356Z,17.41
2019-05-14T00:48:44.761Z,17.39
2019-05-14T00:51:35.284Z,17.46
2019-05-14T00:54:25.474Z,17.46
2019-05-14T00:57:15.826Z,17.44
2019-05-14T01:00:06.116Z,17.46
2019-05-14T01:02:56.392Z,17.41
2019-05-14T01:05:46.392Z,17.46
2019-05-14T01:08:36.645Z,17.52
2019-05-14T01:11:26.661Z,17.63
2019-05-14T01:14:17.139Z,17.44
2019-05-14T01:17:07.607Z,17.62
2019-05-14T01:19:57.876Z,17.52
2019-05-14T01:22:47.825Z,17.52
2019-05-14T01:25:38.156Z,17.55
2019-05-14T01:28:28.451Z,17.52
2019-05-14T01:31:18.471Z,17.54
2019-05-14T01:34:11.033Z,17.65
2019-05-14T01:37:02.529Z,17.62
2019-05-14T01:39:52.713Z,17.80
2019-05-14T01:42:42.999Z,17.66
2019-05-14T01:45:33.477Z,17.58
2019-05-14T01:48:23.767Z,17.75
2019-05-14T01:51:14.227Z,17.77
2019-05-14T01:54:04.520Z,17.67
2019-05-14T01:56:54.704Z,17.65
2019-05-14T01:59:44.902Z,17.58
2019-05-14T02:02:35.218Z,17.59
2019-05-14T02:05:25.559Z,17.61
2019-05-14T02:08:15.762Z,17.62
2019-05-14T02:11:06.091Z,17.49
2019-05-14T02:13:56.235Z,17.44
2019-05-14T02:16:51.182Z,17.50
2019-05-14T02:19:42.800Z,17.32
2019-05-14T02:22:34.603Z,17.30
2019-05-14T02:25:24.744Z,17.38
2019-05-14T02:28:14.949Z,17.43
2019-05-14T02:31:05.145Z,17.26
2019-05-14T02:33:55.501Z,17.26
2019-05-14T02:36:45.698Z,17.09
2019-05-14T02:39:36.029Z,16.98
2019-05-14T02:42:28.877Z,17.00
2019-05-14T02:45:19.997Z,17.01
2019-05-14T02:48:10.055Z,16.95
2019-05-14T02:51:00.221Z,17.05
2019-05-14T02:53:50.541Z,16.95
2019-05-14T02:56:41.574Z,17.00
2019-05-14T02:59:31.785Z,17.13
2019-05-14T03:02:23.196Z,17.20
2019-05-14T03:05:13.402Z,17.12
2019-05-14T03:08:03.915Z,17.30
2019-05-14T03:10:53.947Z,17.26
2019-05-14T03:13:45.049Z,17.28
2019-05-14T03:16:40.097Z,17.32
2019-05-14T03:19:29.768Z,17.29
2019-05-14T03:22:26.560Z,17.32
2019-05-14T03:25:11.654Z,17.29
2019-05-14T03:28:01.919Z,17.26
2019-05-14T03:30:53.356Z,17.12
2019-05-14T03:33:44.978Z,17.08
2019-05-14T03:36:35.977Z,17.07
2019-05-14T03:39:29.412Z,16.98
2019-05-14T03:42:19.311Z,16.95
2019-05-14T03:45:10.864Z,16.94
2019-05-14T03:48:00.960Z,16.96
2019-05-14T03:50:51.278Z,16.91
2019-05-14T03:53:55.109Z,16.92
2019-05-14T03:56:32.976Z,17.03
2019-05-14T03:59:23.500Z,17.05
2019-05-14T04:02:13.661Z,17.06
2019-05-14T04:05:04.160Z,17.08
2019-05-14T04:07:54.218Z,17.07
2019-05-14T04:10:51.848Z,17.17
2019-05-14T04:13:40.609Z,17.26
2019-05-14T04:16:30.447Z,17.27
2019-05-14T04:19:20.753Z,17.40
2019-05-14T04:22:12.069Z,17.40
2019-05-14T04:25:02.143Z,17.39
2019-05-14T04:27:52.133Z,17.31
2019-05-14T04:30:42.389Z,17.42
2019-05-14T04:33:32.627Z,17.48
2019-05-14T04:36:22.658Z,17.55
2019-05-14T04:39:13.141Z,17.66
2019-05-14T04:42:03.250Z,17.75
2019-05-14T04:44:53.273Z,17.79
2019-05-14T04:47:43.558Z,17.84
2019-05-14T04:50:33.860Z,17.94
2019-05-14T04:53:24.012Z,17.99
2019-05-14T04:56:14.135Z,18.09
2019-05-14T04:59:04.357Z,18.16
2019-05-14T05:01:54.475Z,18.34
2019-05-14T05:04:44.964Z,18.38
2019-05-14T05:07:39.418Z,18.41
2019-05-14T05:10:29.789Z,18.52
2019-05-14T05:13:20.238Z,19.18
2019-05-14T05:16:10.687Z,19.18
2019-05-14T05:19:00.751Z,19.76
2019-05-14T05:21:51.036Z,19.76
2019-05-14T05:24:41.783Z,20.08
2019-05-14T05:27:32.003Z,20.25
2019-05-14T05:30:22.263Z,20.11
2019-05-14T05:33:12.613Z,19.90
2019-05-14T05:36:02.774Z,19.61
2019-05-14T05:38:52.833Z,19.71
2019-05-14T05:41:43.299Z,19.66
2019-05-14T05:44:33.505Z,19.81
2019-05-14T05:47:24.733Z,19.76
2019-05-14T05:50:14.893Z,19.53
2019-05-14T05:53:05.133Z,19.53
2019-05-14T05:55:55.442Z,19.42
2019-05-14T05:58:45.746Z,19.25
2019-05-14T06:01:42.843Z,19.18
2019-05-14T06:04:29.164Z,19.18
2019-05-14T06:07:19.544Z,19.19
2019-05-14T06:10:09.909Z,19.17
2019-05-14T06:13:00.170Z,19.26
2019-05-14T06:15:52.253Z,19.40
2019-05-14T06:18:43.637Z,19.67
2019-05-14T06:21:33.977Z,19.90
2019-05-14T06:24:24.463Z,20.00
2019-05-14T06:27:14.602Z,20.07
2019-05-14T06:30:05.932Z,20.07
2019-05-14T06:32:55.916Z,20.09
2019-05-14T06:35:48.395Z,20.18
2019-05-14T06:38:38.795Z,20.14
2019-05-14T06:41:29.297Z,20.12
2019-05-14T06:44:19.835Z,20.16
2019-05-14T06:47:11.091Z,20.14
2019-05-14T06:50:01.537Z,20.27
2019-05-14T06:52:51.908Z,20.36
2019-05-14T06:55:42.318Z,20.41
2019-05-14T06:58:32.715Z,21.23
2019-05-14T07:01:22.914Z,22.91
2019-05-14T07:04:13.214Z,23.90
2019-05-14T07:07:03.490Z,23.26
2019-05-14T07:09:53.707Z,23.41
2019-05-14T07:12:43.767Z,25.90
2019-05-14T07:15:33.912Z,25.31
2019-05-14T07:18:24.423Z,24.45
2019-05-14T07:21:14.423Z,24.11
2019-05-14T07:24:04.534Z,23.78
2019-05-14T07:26:55.020Z,23.25
2019-05-14T07:29:45.399Z,23.15
2019-05-14T07:32:35.705Z,23.38
2019-05-14T07:35:25.998Z,23.72
2019-05-14T07:38:16.272Z,23.79
2019-05-14T07:41:08.945Z,24.32
2019-05-14T07:43:58.709Z,25.23
2019-05-14T07:46:49.625Z,25.71
2019-05-14T07:49:40.404Z,25.88
2019-05-14T07:52:31.325Z,26.26
2019-05-14T07:55:22.161Z,25.71
2019-05-14T07:58:13.031Z,25.75
2019-05-14T08:01:03.682Z,26.02
2019-05-14T08:03:54.744Z,26.17
2019-05-14T08:06:45.492Z,25.98
2019-05-14T08:09:38.731Z,26.20
2019-05-14T08:12:29.016Z,26.05
2019-05-14T08:15:22.453Z,26.09
2019-05-14T08:18:14.482Z,26.25
2019-05-14T08:21:05.661Z,26.01
2019-05-14T08:23:59.105Z,25.76
2019-05-14T08:26:49.460Z,25.83
2019-05-14T08:29:40.302Z,25.96
2019-05-14T08:32:30.468Z,25.85
2019-05-14T08:35:20.643Z,25.77
2019-05-14T08:38:12.275Z,25.27
2019-05-14T08:41:02.659Z,24.78
2019-05-14T08:43:53.014Z,24.25
2019-05-14T08:46:45.079Z,24.15
2019-05-14T08:49:42.606Z,24.42
2019-05-14T08:52:28.793Z,24.73
2019-05-14T08:55:18.513Z,24.81
2019-05-14T08:58:13.478Z,24.99
2019-05-14T09:01:00.471Z,24.77
2019-05-14T09:03:50.737Z,24.51
2019-05-14T09:06:41.225Z,23.98
2019-05-14T09:09:32.605Z,24.27
2019-05-14T09:12:23.082Z,24.41
2019-05-14T09:15:13.470Z,24.62
2019-05-14T09:18:04.043Z,25.01
2019-05-14T09:20:54.340Z,24.98
2019-05-14T09:23:45.333Z,25.25
2019-05-14T09:26:36.219Z,25.43
2019-05-14T09:29:29.827Z,25.71
2019-05-14T09:32:19.497Z,26.07
2019-05-14T09:35:10.800Z,26.57
2019-05-14T09:38:01.487Z,26.46
2019-05-14T09:41:07.117Z,26.19
2019-05-14T09:43:44.605Z,25.95
2019-05-14T09:46:35.331Z,25.68
2019-05-14T09:49:28.263Z,25.49
2019-05-14T09:52:18.782Z,25.54
2019-05-14T09:55:09.908Z,25.43
2019-05-14T09:58:01.892Z,25.61
2019-05-14T10:00:52.677Z,25.48
2019-05-14T10:03:43.708Z,25.46
2019-05-14T10:06:34.559Z,25.52
2019-05-14T10:09:25.609Z,25.65
2019-05-14T10:12:16.625Z,25.62
2019-05-14T10:15:09.758Z,25.28
2019-05-14T10:18:00.786Z,25.28
2019-05-14T10:20:52.274Z,25.45
2019-05-14T10:23:47.665Z,25.20
2019-05-14T10:26:43.410Z,25.01
2019-05-14T10:29:35.520Z,24.85
2019-05-14T10:32:29.311Z,24.92
2019-05-14T10:35:19.174Z,24.63
2019-05-14T10:38:09.402Z,24.12
2019-05-14T10:40:59.702Z,24.34
2019-05-14T10:43:50.510Z,24.38
2019-05-14T10:46:40.957Z,24.50
2019-05-14T10:49:31.397Z,24.17
2019-05-14T10:52:21.760Z,23.84
2019-05-14T10:55:12.269Z,23.59
2019-05-14T10:58:02.184Z,23.46
2019-05-14T11:00:52.507Z,23.30
2019-05-14T11:03:42.684Z,23.22
2019-05-14T11:06:32.839Z,23.44
2019-05-14T11:09:23.070Z,23.22
2019-05-14T11:12:13.430Z,23.31
2019-05-14T11:15:03.764Z,23.45
2019-05-14T11:17:54.206Z,23.25
2019-05-14T11:20:44.337Z,23.32
2019-05-14T11:23:34.641Z,23.08
2019-05-14T11:26:25.121Z,22.93
2019-05-14T11:29:15.417Z,22.70
2019-05-14T11:32:05.689Z,22.67
2019-05-14T11:34:55.952Z,22.53
2019-05-14T11:37:48.016Z,22.67
2019-05-14T11:40:38.685Z,22.61
2019-05-14T11:43:29.065Z,22.65
2019-05-14T11:46:33.645Z,22.72
2019-05-14T11:49:11.276Z,22.45
2019-05-14T11:52:07.874Z,22.59
2019-05-14T11:54:53.252Z,22.49
2019-05-14T11:57:43.539Z,22.77
2019-05-14T12:00:33.560Z,22.85
2019-05-14T12:03:23.927Z,22.70
2019-05-14T12:06:14.219Z,22.71
2019-05-14T12:09:06.219Z,23.00
2019-05-14T12:11:58.490Z,22.87
2019-05-14T12:14:48.478Z,22.95
2019-05-14T12:17:39.612Z,22.94
2019-05-14T12:20:30.036Z,22.79
2019-05-14T12:23:20.162Z,22.68
2019-05-14T12:26:11.375Z,22.60
2019-05-14T12:29:01.622Z,22.77
2019-05-14T12:31:51.860Z,22.33
2019-05-14T12:34:42.347Z,22.36
2019-05-14T12:37:32.513Z,22.18
2019-05-14T12:40:22.767Z,22.08
2019-05-14T12:43:13.142Z,22.27
2019-05-14T12:46:03.350Z,22.19
2019-05-14T12:48:54.381Z,21.94
2019-05-14T12:51:44.484Z,21.53
2019-05-14T12:54:34.574Z,21.90
2019-05-14T12:57:24.923Z,21.98
2019-05-14T13:00:15.325Z,22.12
2019-05-14T13:03:05.819Z,22.46
2019-05-14T13:05:58.585Z,22.38
2019-05-14T13:08:49.295Z,22.30
2019-05-14T13:11:41.609Z,22.56
2019-05-14T13:14:31.962Z,22.42
2019-05-14T13:17:22.043Z,22.17
2019-05-14T13:20:14.069Z,22.11
2019-05-14T13:23:05.426Z,22.06
2019-05-14T13:25:58.413Z,22.14
2019-05-14T13:28:50.669Z,22.11
2019-05-14T13:31:38.939Z,21.95
2019-05-14T13:34:29.370Z,21.86
2019-05-14T13:37:19.523Z,21.94
2019-05-14T13:40:13.539Z,21.81
2019-05-14T13:43:01.484Z,21.74
2019-05-14T13:45:51.587Z,21.69
2019-05-14T13:48:43.292Z,21.65
2019-05-14T13:51:33.911Z,21.53
2019-05-14T13:54:24.402Z,21.57
2019-05-14T13:57:14.909Z,21.61
2019-05-14T14:00:04.960Z,21.43
2019-05-14T14:02:55.543Z,21.26
2019-05-14T14:05:45.793Z,21.22
2019-05-14T14:08:41.934Z,21.15
2019-05-14T14:11:31.355Z,21.22
2019-05-14T14:14:20.525Z,21.12
2019-05-14T14:17:11.747Z,21.18
2019-05-14T14:20:02.087Z,21.04
2019-05-14T14:22:52.100Z,21.09
2019-05-14T14:25:42.460Z,21.02
2019-05-14T14:28:32.734Z,21.09
2019-05-14T14:31:23.518Z,21.03
2019-05-14T14:34:13.930Z,20.98
2019-05-14T14:37:04.438Z,21.06
2019-05-14T14:39:54.619Z,21.06
2019-05-14T14:42:44.698Z,21.17
2019-05-14T14:45:34.879Z,21.18
2019-05-14T14:48:25.205Z,21.22
2019-05-14T14:51:15.472Z,21.15
2019-05-14T14:54:11.814Z,20.86
2019-05-14T14:56:59.224Z,20.53
2019-05-14T14:59:49.408Z,20.44
2019-05-14T15:02:41.294Z,20.38
2019-05-14T15:05:31.818Z,20.39
2019-05-14T15:08:22.119Z,20.45
2019-05-14T15:11:12.618Z,20.37
2019-05-14T15:14:03.008Z,20.35
2019-05-14T15:16:53.336Z,20.33
2019-05-14T15:19:43.644Z,20.26
2019-05-14T15:22:34.041Z,20.30
2019-05-14T15:25:24.004Z,20.38
2019-05-14T15:28:14.245Z,20.25
2019-05-14T15:31:04.471Z,20.26
2019-05-14T15:33:54.860Z,20.28
2019-05-14T15:36:45.249Z,20.37
2019-05-14T15:39:38.903Z,20.54
2019-05-14T15:42:28.470Z,20.39
2019-05-14T15:45:19.019Z,20.50
2019-05-14T15:48:09.255Z,20.62
2019-05-14T15:50:59.888Z,20.82
2019-05-14T15:54:05.632Z,20.79
2019-05-14T15:56:42.064Z,20.82
2019-05-14T15:59:32.327Z,20.82
2019-05-14T16:02:22.415Z,20.70
2019-05-14T16:05:12.849Z,20.60
2019-05-14T16:08:02.814Z,20.75
2019-05-14T16:10:53.114Z,20.62
2019-05-14T16:13:43.523Z,20.48
2019-05-14T16:16:33.940Z,20.35
2019-05-14T16:19:24.248Z,20.35
2019-05-14T16:22:14.698Z,20.32
2019-05-14T16:25:05.189Z,20.24
2019-05-14T16:27:55.112Z,20.25
2019-05-14T16:30:45.400Z,20.27
2019-05-14T16:33:35.598Z,20.05
2019-05-14T16:36:26.044Z,20.01
2019-05-14T16:39:16.298Z,19.94
2019-05-14T16:42:07.133Z,19.75
2019-05-14T16:44:57.701Z,19.74
2019-05-14T16:47:47.939Z,19.72
2019-05-14T16:50:38.171Z,19.60
2019-05-14T16:53:28.862Z,19.44
2019-05-14T16:56:19.431Z,19.33
2019-05-14T16:59:09.689Z,19.29
2019-05-14T17:01:59.673Z,19.27
2019-05-14T17:04:49.956Z,19.27
2019-05-14T17:07:40.265Z,19.13
2019-05-14T17:10:30.441Z,18.96
2019-05-14T17:13:20.791Z,18.94
2019-05-14T17:16:11.091Z,18.79
2019-05-14T17:19:01.405Z,18.70
2019-05-14T17:21:51.711Z,18.69
2019-05-14T17:24:42.039Z,18.67
2019-05-14T17:27:32.392Z,18.52
2019-05-14T17:30:22.684Z,18.62
2019-05-14T17:33:12.996Z,18.62
2019-05-14T17:36:03.341Z,18.59
2019-05-14T17:38:53.751Z,18.59
2019-05-14T17:41:44.184Z,18.60
2019-05-14T17:44:34.437Z,18.59
2019-05-14T17:47:24.792Z,18.60
2019-05-14T17:50:15.068Z,18.68
2019-05-14T17:53:05.281Z,18.66
2019-05-14T17:55:55.625Z,18.52
2019-05-14T17:58:45.912Z,18.52
2019-05-14T18:01:35.989Z,18.47
2019-05-14T18:04:28.410Z,18.47
2019-05-14T18:07:19.291Z,18.33
2019-05-14T18:10:10.999Z,18.33
2019-05-14T18:13:01.193Z,18.26
2019-05-14T18:15:51.381Z,18.19
2019-05-14T18:18:41.803Z,18.19
2019-05-14T18:21:34.195Z,18.24
2019-05-14T18:24:24.643Z,18.40
2019-05-14T18:27:14.880Z,18.37
2019-05-14T18:30:05.657Z,18.57
2019-05-14T18:32:58.439Z,18.57
2019-05-14T18:35:50.844Z,18.56
2019-05-14T18:38:40.549Z,18.52
2019-05-14T18:41:32.153Z,18.60
2019-05-14T18:44:23.205Z,18.47
2019-05-14T18:47:16.674Z,18.19
2019-05-14T18:50:08.780Z,18.22
2019-05-14T18:52:59.903Z,18.16
2019-05-14T18:55:50.244Z,18.16
2019-05-14T18:58:40.552Z,18.01
2019-05-14T19:01:30.851Z,18.00
2019-05-14T19:04:20.972Z,18.03
2019-05-14T19:07:11.150Z,18.03
2019-05-14T19:10:01.797Z,18.06
2019-05-14T19:12:52.970Z,18.04
2019-05-14T19:15:43.231Z,17.83
2019-05-14T19:18:33.513Z,17.83
2019-05-14T19:21:23.799Z,17.85
2019-05-14T19:24:14.014Z,17.83
2019-05-14T19:27:04.160Z,17.82
2019-05-14T19:29:54.415Z,17.77
2019-05-14T19:32:44.732Z,17.80
2019-05-14T19:35:34.896Z,17.79
2019-05-14T19:38:25.384Z,17.75
2019-05-14T19:41:15.724Z,17.86
2019-05-14T19:44:08.830Z,17.86
2019-05-14T19:46:59.309Z,17.86
2019-05-14T19:49:49.778Z,17.99
2019-05-14T19:52:40.075Z,17.99
2019-05-14T19:55:30.321Z,17.98
2019-05-14T19:58:20.490Z,17.89
2019-05-14T20:01:10.533Z,17.88
2019-05-14T20:04:00.828Z,17.81
2019-05-14T20:06:51.133Z,17.76
2019-05-14T20:09:41.433Z,17.85
2019-05-14T20:12:31.784Z,17.75
2019-05-14T20:15:22.255Z,17.79
2019-05-14T20:18:12.760Z,17.81
2019-05-14T20:21:03.103Z,17.52
2019-05-14T20:23:53.641Z,17.71
2019-05-14T20:26:45.597Z,17.67
2019-05-14T20:29:35.338Z,17.67
2019-05-14T20:32:25.629Z,17.78
2019-05-14T20:35:29.911Z,17.77
2019-05-14T20:38:09.065Z,17.65
2019-05-14T20:40:59.802Z,17.65
2019-05-14T20:43:49.815Z,17.67
2019-05-14T20:46:40.407Z,17.70
2019-05-14T20:49:30.640Z,17.68
2019-05-14T20:52:21.092Z,17.65
2019-05-14T20:55:11.542Z,17.70
2019-05-14T20:58:01.643Z,17.70
2019-05-14T21:00:51.568Z,17.71
2019-05-14T21:03:44.040Z,17.53
2019-05-14T21:06:33.793Z,17.57
2019-05-14T21:09:24.123Z,17.63
2019-05-14T21:12:14.431Z,17.52
2019-05-14T21:15:04.965Z,17.48
2019-05-14T21:17:55.095Z,17.45
2019-05-14T21:20:45.218Z,17.34
2019-05-14T21:23:35.411Z,17.41
2019-05-14T21:26:25.541Z,17.44
2019-05-14T21:29:15.472Z,17.44
2019-05-14T21:32:08.201Z,17.42
2019-05-14T21:34:58.606Z,17.34
2019-05-14T21:37:51.400Z,17.34
2019-05-14T21:40:40.857Z,17.39
2019-05-14T21:43:31.164Z,17.33
2019-05-14T21:46:21.364Z,17.43
2019-05-14T21:49:13.253Z,17.37
2019-05-14T21:52:03.484Z,17.48
2019-05-14T21:54:53.624Z,17.37
2019-05-14T21:57:54.280Z,17.32
2019-05-14T22:00:42.171Z,17.34
2019-05-14T22:03:32.305Z,17.47
2019-05-14T22:06:22.721Z,17.21
2019-05-14T22:09:13.123Z,17.37
2019-05-14T22:12:03.492Z,17.52
2019-05-14T22:14:54.049Z,17.54
2019-05-14T22:17:44.375Z,17.60
2019-05-14T22:20:34.833Z,17.70
2019-05-14T22:23:25.091Z,17.71
2019-05-14T22:26:15.357Z,17.72
2019-05-14T22:29:08.149Z,17.84
2019-05-14T22:31:58.692Z,17.72
2019-05-14T22:34:49.168Z,17.72
2019-05-14T22:37:39.345Z,17.67
2019-05-14T22:40:29.859Z,17.67
2019-05-14T22:43:20.087Z,17.70
2019-05-14T22:46:10.424Z,17.78
2019-05-14T22:49:00.733Z,17.80
2019-05-14T22:51:52.240Z,17.74
2019-05-14T22:54:42.687Z,17.66
2019-05-14T22:57:33.043Z,17.67
2019-05-14T23:00:23.214Z,17.68
2019-05-14T23:03:13.777Z,17.72
2019-05-14T23:06:04.059Z,17.70
2019-05-14T23:08:55.348Z,17.59
2019-05-14T23:11:47.902Z,17.31
2019-05-14T23:14:39.103Z,17.08
2019-05-14T23:17:29.328Z,17.17
2019-05-14T23:20:20.660Z,17.20
2019-05-14T23:23:10.816Z,17.06
2019-05-14T23:26:01.644Z,17.24
2019-05-14T23:28:51.818Z,17.18
2019-05-14T23:31:42.079Z,17.18
2019-05-14T23:34:32.383Z,17.20
2019-05-14T23:37:22.418Z,17.13
2019-05-14T23:40:12.558Z,17.05
2019-05-14T23:43:02.865Z,17.13
2019-05-14T23:45:53.054Z,17.16
2019-05-14T23:48:43.359Z,17.25
2019-05-14T23:51:33.791Z,17.21
2019-05-14T23:54:24.486Z,17.22
2019-05-14T23:57:14.778Z,17.10
